KPNS/PNS METAR and TAF weather

Enter ICAO airport designator
Station Type Date Time Source
KPNS METAR 2020/09/24 11:53 UTC NOAA

KPNS 241153Z 16008KT 10SM FEW017 SCT026 SCT046 23/23 A2983 RMK AO2 RAE31 SLP103 P0005 60028 70032 T02330228 10250 20233 53003


Station Type Date Time Source
KPNS Decoded METAR 2020/09/24 11:53 UTC NOAA

PENSACOLA REGIONAL AIRPORT, FL, United States (KPNS) 30-29N 087-11W 38M
Sep 24, 2020 - 07:53 AM EDT / 2020.09.24 1153 UTC
Wind: from the SSE (160 degrees) at 9 MPH (8 KT):0
Visibility: 10 mile(s):0
Sky conditions: partly cloudy
Precipitation last hour: 0.05 inches
Temperature: 73.9 F (23.3 C)
Dew Point: 73.0 F (22.8 C)
Relative Humidity: 97%
Pressure (altimeter): 29.83 in. Hg (1010 hPa)
Pressure tendency: 0.01 inches (0.3 hPa) higher than three hours ago
ob: KPNS 241153Z 16008KT 10SM FEW017 SCT026 SCT046 23/23 A2983 RMK AO2 RAE31 SLP103 P0005 60028 70032 T02330228 10250 20233 53003
cycle: 12

Station Type Date Time Source
KPNS TAF 2020/09/24 12:40 UTC NOAA

TAF KPNS 241138Z 2412/2512 16014KT 6SM BR VCSH SCT015 BKN045 OVC080
TEMPO 2413/2417 6SM -SHRA BR OVC012
FM241700 19014G23KT 6SM BR VCSH BKN029
TEMPO 2417/2421 4SM SHRA OVC015
FM242300 20010G18KT P6SM SCT060 PROB30 2500/2505 4SM -SHRA BKN060
FM250500 24005KT P6SM BKN012 PROB30 2505/2506 4SM -SHRA OVC025
FM250800 28004KT P6SM SCT004

Example: see airport list